Time;durP1;ratioP1;P1;durP2;ratioP2;P2;SDS_P1;SDS_P2;PMS_P1;PMS_P2;Temp;Humidity;BMP_temperature;BMP_pressure;BME280_temperature;BME280_humidity;BME280_pressure;Samples;Min_cycle;Max_cycle;Signal;HPM_P1;HPM_P2
2023/02/27 00:01:41;;;;;;;2.13;1.70;;;;;;;-4.01;75.01;95837.72;5023300;28;20195;-77
2023/02/27 00:04:07;;;;;;;3.37;1.87;;;;;;;-4.10;75.15;95843.09;5017464;28;20203;-77
2023/02/27 00:06:32;;;;;;;3.47;2.40;;;;;;;-4.08;75.39;95839.63;5020055;28;20338;-77
2023/02/27 00:08:57;;;;;;;2.13;1.67;;;;;;;-4.09;75.63;95837.16;5010610;28;20226;-77
2023/02/27 00:11:23;;;;;;;3.30;1.90;;;;;;;-4.12;75.69;95838.09;5016114;28;20294;-77
2023/02/27 00:13:49;;;;;;;1.80;1.70;;;;;;;-4.13;75.36;95830.53;5017963;28;20216;-77
2023/02/27 00:16:15;;;;;;;1.80;1.67;;;;;;;-4.06;75.83;95832.81;5027990;28;20804;-77
2023/02/27 00:18:40;;;;;;;4.10;1.87;;;;;;;-4.23;76.33;95837.63;5024799;28;20187;-77
2023/02/27 00:21:05;;;;;;;2.17;1.90;;;;;;;-4.22;76.41;95830.84;5018217;28;20190;-76
2023/02/27 00:23:31;;;;;;;2.17;1.73;;;;;;;-4.09;75.63;95839.69;5004133;28;20227;-77
2023/02/27 00:25:56;;;;;;;2.83;2.07;;;;;;;-4.28;76.65;95837.78;5026330;28;20727;-77
2023/02/27 00:28:22;;;;;;;2.63;1.87;;;;;;;-4.27;77.00;95831.81;5016311;28;20220;-76
2023/02/27 00:30:47;;;;;;;2.20;1.87;;;;;;;-4.13;76.17;95830.53;5033713;28;20604;-77
2023/02/27 00:33:13;;;;;;;3.03;2.03;;;;;;;-4.23;76.89;95837.63;5028956;28;20240;-77
2023/02/27 00:35:38;;;;;;;2.40;1.93;;;;;;;-4.33;77.41;95847.25;5022383;28;20203;-77
2023/02/27 00:38:03;;;;;;;3.07;1.80;;;;;;;-4.30;77.23;95839.53;5018522;28;20192;-77
2023/02/27 00:40:29;;;;;;;4.47;2.03;;;;;;;-4.31;77.34;95832.81;5024497;28;20179;-77
2023/02/27 00:42:54;;;;;;;2.13;1.80;;;;;;;-4.42;78.19;95844.16;5023550;28;20294;-77
2023/02/27 00:45:19;;;;;;;4.23;1.97;;;;;;;-4.44;78.35;95841.69;5021128;28;20210;-77
2023/02/27 00:47:45;;;;;;;4.30;1.93;;;;;;;-4.23;77.54;95840.16;5015213;28;20182;-77
2023/02/27 00:50:11;;;;;;;4.93;2.23;;;;;;;-4.20;77.46;95834.97;5011173;28;20219;-77
2023/02/27 00:52:36;;;;;;;3.10;1.97;;;;;;;-4.36;78.00;95843.97;5023365;28;20393;-77
2023/02/27 00:55:02;;;;;;;2.47;1.67;;;;;;;-4.37;78.25;95827.94;4999760;28;20304;-77
2023/02/27 00:57:27;;;;;;;4.43;1.97;;;;;;;-4.38;78.55;95830.53;5005153;28;20199;-77
2023/02/27 00:59:52;;;;;;;2.50;1.93;;;;;;;-4.29;77.94;95825.16;5025039;28;20209;-77
2023/02/27 01:02:18;;;;;;;3.50;2.27;;;;;;;-4.24;77.13;95827.50;5020181;28;20198;-77
2023/02/27 01:04:43;;;;;;;2.77;2.10;;;;;;;-4.47;78.41;95831.66;5022677;28;20218;-77
2023/02/27 01:07:09;;;;;;;2.63;2.03;;;;;;;-4.46;78.69;95829.94;5009238;28;20195;-77
2023/02/27 01:09:34;;;;;;;2.10;1.90;;;;;;;-4.51;78.67;95830.09;5023154;28;20234;-78
2023/02/27 01:11:59;;;;;;;2.70;1.87;;;;;;;-4.44;78.96;95821.41;5033536;28;20190;-77
2023/02/27 01:14:25;;;;;;;3.10;2.17;;;;;;;-4.39;78.11;95829.69;5014739;28;20706;-77
2023/02/27 01:16:50;;;;;;;3.77;1.90;;;;;;;-4.42;78.46;95822.16;5025870;28;20279;-77
2023/02/27 01:19:15;;;;;;;3.47;2.63;;;;;;;-4.48;78.63;95813.97;5003420;28;20201;-77
2023/02/27 01:21:41;;;;;;;5.33;2.97;;;;;;;-4.51;79.70;95814.88;5000565;28;20197;-77
2023/02/27 01:24:07;;;;;;;4.77;3.27;;;;;;;-4.49;78.43;95814.84;5027361;28;20221;-77
2023/02/27 01:26:32;;;;;;;4.23;2.23;;;;;;;-4.45;78.89;95811.31;5005407;28;20187;-77
2023/02/27 01:28:58;;;;;;;3.87;2.70;;;;;;;-4.49;78.61;95813.13;5016894;28;20344;-78
2023/02/27 01:31:23;;;;;;;2.90;2.17;;;;;;;-4.55;79.25;95813.34;5002206;28;20206;-77
2023/02/27 01:33:48;;;;;;;1.53;1.40;;;;;;;-4.49;78.15;95815.69;5005673;28;20190;-77
2023/02/27 01:36:14;;;;;;;3.47;2.10;;;;;;;-4.54;79.66;95817.53;5003130;28;20185;-77
2023/02/27 01:38:39;;;;;;;2.40;1.90;;;;;;;-4.57;79.11;95810.84;5029540;28;20205;-77
2023/02/27 01:41:06;;;;;;;3.07;1.93;;;;;;;-4.52;79.30;95813.22;5011449;28;20189;-77
2023/02/27 01:43:32;;;;;;;2.47;2.03;;;;;;;-4.67;79.45;95809.50;5022890;28;20553;-77
2023/02/27 01:45:59;;;;;;;3.43;2.03;;;;;;;-4.59;79.50;95812.63;5031093;28;20203;-77
2023/02/27 01:48:30;;;;;;;2.03;1.93;;;;;;;-4.63;79.82;95795.84;5022148;28;20531;-77
2023/02/27 01:51:00;;;;;;;3.93;2.00;;;;;;;-4.56;79.24;95802.38;5024266;28;20682;-77
2023/02/27 01:53:27;;;;;;;2.10;1.70;;;;;;;-4.60;79.39;95805.03;5017997;28;20222;-77
2023/02/27 01:56:00;;;;;;;2.60;1.80;;;;;;;-4.60;80.22;95808.41;5028555;28;20601;-77
2023/02/27 01:58:26;;;;;;;3.67;2.27;;;;;;;-4.62;79.88;95802.56;5021799;28;20174;-77
2023/02/27 02:00:52;;;;;;;3.37;2.10;;;;;;;-4.62;79.88;95806.81;5020389;28;20209;-76
2023/02/27 02:03:23;;;;;;;4.07;1.90;;;;;;;-4.57;79.15;95810.03;5012918;28;20188;-77
2023/02/27 02:05:48;;;;;;;2.20;2.07;;;;;;;-4.66;80.45;95806.09;5017693;28;20204;-77
2023/02/27 02:08:17;;;;;;;4.63;2.13;;;;;;;-4.62;79.85;95806.81;5013898;28;20193;-77
2023/02/27 02:10:43;;;;;;;3.70;2.40;;;;;;;-4.60;80.92;95807.56;5020892;28;20225;-77
2023/02/27 02:13:08;;;;;;;3.83;2.00;;;;;;;-4.64;81.14;95800.97;5023511;28;20282;-77
2023/02/27 02:15:36;;;;;;;2.97;2.30;;;;;;;-4.52;79.59;95798.00;5034344;28;20261;-78
2023/02/27 02:18:05;;;;;;;2.40;2.20;;;;;;;-4.60;80.08;95795.72;5050813;28;20179;-78
2023/02/27 02:21:08;;;;;;;4.20;2.37;;;;;;;-4.67;81.07;95798.53;5039526;28;20174;-77
2023/02/27 02:23:59;;;;;;;2.90;2.13;;;;;;;-4.62;81.30;95806.81;5030516;28;20187;-77
2023/02/27 02:26:54;;;;;;;2.80;2.00;;;;;;;-4.54;80.79;95804.84;5029751;28;20187;-77
2023/02/27 02:29:44;;;;;;;2.73;2.30;;;;;;;-4.54;80.98;95806.56;5039134;28;20220;-77
2023/02/27 02:32:32;;;;;;;3.37;2.30;;;;;;;-4.57;82.11;95808.31;5035819;28;20258;-77
2023/02/27 02:34:57;;;;;;;2.17;1.93;;;;;;;-4.52;81.71;95810.69;5030566;28;20214;-77
2023/02/27 02:38:00;;;;;;;6.47;2.97;;;;;;;-4.50;80.77;95806.41;5023354;28;20189;-77
2023/02/27 02:41:05;;;;;;;2.33;2.13;;;;;;;-4.61;82.10;95805.91;5035327;28;20181;-78
2023/02/27 02:43:39;;;;;;;2.83;2.57;;;;;;;-4.68;83.36;95812.91;5029165;28;20363;-77
2023/02/27 02:46:22;;;;;;;2.33;2.10;;;;;;;-4.48;82.10;95804.66;5039629;28;20190;-78
2023/02/27 02:48:53;;;;;;;3.57;2.40;;;;;;;-4.49;82.14;95804.72;5037552;28;20193;-78
2023/02/27 02:51:22;;;;;;;6.17;2.67;;;;;;;-4.50;82.19;95801.34;5030086;28;20206;-78
2023/02/27 02:54:09;;;;;;;2.80;2.60;;;;;;;-4.45;82.54;95809.59;5023477;28;20186;-78
2023/02/27 02:56:41;;;;;;;4.33;2.90;;;;;;;-4.48;82.29;95809.72;5018794;28;20200;-76
2023/02/27 02:59:29;;;;;;;4.67;2.37;;;;;;;-4.63;83.03;95813.59;5031817;28;20172;-77
2023/02/27 03:02:13;;;;;;;3.30;2.27;;;;;;;-4.52;83.36;95814.94;5027751;28;20267;-77
2023/02/27 03:04:42;;;;;;;4.90;2.40;;;;;;;-4.60;83.01;95815.19;5023109;28;20206;-77
2023/02/27 03:07:29;;;;;;;4.30;2.80;;;;;;;-4.49;83.44;95810.59;5014639;28;20492;-78
2023/02/27 03:10:02;;;;;;;5.03;3.53;;;;;;;-4.57;83.00;95815.09;5037224;28;20214;-78
2023/02/27 03:12:27;;;;;;;5.20;2.53;;;;;;;-4.64;83.69;95819.53;5044168;28;20285;-78
2023/02/27 03:15:00;;;;;;;3.40;2.50;;;;;;;-4.63;83.59;95807.69;5023112;28;20276;-77
2023/02/27 03:17:33;;;;;;;5.20;2.30;;;;;;;-4.54;82.91;95812.44;5039837;28;20182;-78
2023/02/27 03:20:03;;;;;;;3.43;2.87;;;;;;;-4.55;83.21;95813.34;5030414;28;20211;-78
2023/02/27 03:22:35;;;;;;;6.27;2.50;;;;;;;-4.58;83.56;95821.88;5031438;28;20179;-78
2023/02/27 03:25:03;;;;;;;2.30;2.10;;;;;;;-4.56;82.99;95817.56;5035684;28;20224;-77
2023/02/27 03:27:36;;;;;;;3.07;2.30;;;;;;;-4.48;83.79;95808.91;5029639;28;20253;-78
2023/02/27 03:30:17;;;;;;;2.90;2.23;;;;;;;-4.56;83.69;95814.22;5045502;28;20213;-78
2023/02/27 03:32:57;;;;;;;6.03;3.07;;;;;;;-4.49;83.46;95812.31;5034913;28;20194;-78
2023/02/27 03:35:35;;;;;;;2.70;2.40;;;;;;;-4.58;84.22;95824.41;5041758;28;20221;-77
2023/02/27 03:38:26;;;;;;;2.80;2.37;;;;;;;-4.47;83.20;95824.06;5030747;28;20766;-78
2023/02/27 03:40:58;;;;;;;3.53;2.50;;;;;;;-4.58;83.01;95821.03;5040655;28;20197;-78
2023/02/27 03:43:38;;;;;;;4.47;2.40;;;;;;;-4.56;83.38;95830.25;5033174;28;20213;-78
2023/02/27 03:46:08;;;;;;;3.13;2.40;;;;;;;-4.64;84.59;95842.34;5025910;28;20190;-77
2023/02/27 03:48:34;;;;;;;6.13;2.80;;;;;;;-4.65;84.36;95839.84;5040517;28;20183;-78
2023/02/27 03:50:59;;;;;;;3.97;2.10;;;;;;;-4.72;84.12;95839.22;5034871;28;20233;-77
2023/02/27 03:53:33;;;;;;;2.73;2.33;;;;;;;-4.63;84.36;95841.47;5028894;28;20187;-77
2023/02/27 03:55:59;;;;;;;4.37;3.17;;;;;;;-4.77;85.13;95848.69;5010289;28;20203;-78
2023/02/27 03:58:25;;;;;;;3.93;2.60;;;;;;;-4.61;84.30;95838.88;5033522;28;20747;-78
2023/02/27 04:00:50;;;;;;;6.33;2.37;;;;;;;-4.60;83.99;95833.75;5022605;28;20186;-77
2023/02/27 04:03:15;;;;;;;5.60;2.97;;;;;;;-4.78;84.40;95841.09;5027622;28;20240;-77
2023/02/27 04:05:40;;;;;;;3.50;2.53;;;;;;;-4.83;85.18;95842.97;5022809;28;20207;-78
2023/02/27 04:08:30;;;;;;;4.27;3.20;;;;;;;-4.69;85.35;95840.81;5032795;28;20199;-77
2023/02/27 04:11:15;;;;;;;4.40;2.90;;;;;;;-4.62;84.66;95847.34;5032154;28;20210;-78
2023/02/27 04:14:04;;;;;;;4.63;2.90;;;;;;;-4.70;85.18;95849.28;5013204;28;20250;-78
2023/02/27 04:16:37;;;;;;;5.33;2.93;;;;;;;-4.62;84.68;95839.75;5037213;28;20221;-77
2023/02/27 04:19:08;;;;;;;6.20;2.83;;;;;;;-4.65;84.52;95848.28;5043085;28;20182;-77
2023/02/27 04:21:41;;;;;;;5.77;2.60;;;;;;;-4.64;84.12;95851.66;5026662;28;20190;-77
2023/02/27 04:24:12;;;;;;;3.40;2.87;;;;;;;-4.69;84.96;95854.31;5037269;28;20712;-77
2023/02/27 04:26:52;;;;;;;4.47;2.73;;;;;;;-4.64;85.02;95851.66;5032285;28;20179;-77
2023/02/27 04:29:36;;;;;;;4.60;2.80;;;;;;;-4.77;85.19;95860.50;5010614;28;20190;-78
2023/02/27 04:32:10;;;;;;;5.20;2.60;;;;;;;-4.65;84.67;95852.53;5024925;28;20208;-78
2023/02/27 04:34:51;;;;;;;4.47;2.83;;;;;;;-4.63;84.92;95855.84;5037132;28;20256;-78
2023/02/27 04:37:21;;;;;;;4.23;2.30;;;;;;;-4.72;85.33;95854.41;5028409;28;20177;-78
2023/02/27 04:39:52;;;;;;;3.27;2.67;;;;;;;-4.75;85.53;95858.78;5013741;28;20600;-77
2023/02/27 04:42:19;;;;;;;4.10;2.83;;;;;;;-4.66;84.81;95853.41;5018767;28;20208;-78
2023/02/27 04:44:46;;;;;;;3.23;2.60;;;;;;;-4.63;84.97;95869.34;5035035;28;20262;-77
2023/02/27 04:47:13;;;;;;;4.07;2.83;;;;;;;-4.72;85.59;95862.03;5037218;28;20263;-78
2023/02/27 04:49:44;;;;;;;4.10;2.53;;;;;;;-4.77;85.81;95857.97;5012318;28;20213;-78
2023/02/27 04:52:17;;;;;;;5.43;2.97;;;;;;;-4.73;85.46;95860.38;5037118;28;20199;-77
2023/02/27 04:54:49;;;;;;;5.47;2.60;;;;;;;-4.75;85.85;95859.59;5006766;28;20206;-78
2023/02/27 04:57:21;;;;;;;5.17;2.80;;;;;;;-4.79;85.64;95860.56;5035819;28;20510;-77
2023/02/27 04:59:50;;;;;;;3.73;2.87;;;;;;;-4.89;86.04;95854.94;5031117;28;20175;-77
2023/02/27 05:02:23;;;;;;;4.77;3.13;;;;;;;-4.77;86.35;95853.75;5007714;28;20198;-78
2023/02/27 05:04:52;;;;;;;5.87;3.10;;;;;;;-4.73;85.32;95854.47;5009435;28;20706;-77
2023/02/27 05:07:22;;;;;;;4.67;2.90;;;;;;;-4.74;85.98;95863.78;5013688;28;20186;-78
2023/02/27 05:09:52;;;;;;;5.07;2.73;;;;;;;-4.82;85.69;95865.72;5021420;28;20213;-78
2023/02/27 05:12:38;;;;;;;3.33;3.00;;;;;;;-4.88;86.40;95873.50;5024231;28;20190;-77
2023/02/27 05:15:12;;;;;;;4.70;3.00;;;;;;;-4.80;85.83;95863.97;5034595;28;20208;-78
2023/02/27 05:17:59;;;;;;;5.30;3.13;;;;;;;-4.86;86.51;95880.19;5032034;28;20174;-76
2023/02/27 05:20:31;;;;;;;7.87;4.30;;;;;;;-4.75;85.42;95877.34;5031518;28;20182;-79
2023/02/27 05:23:05;;;;;;;11.40;7.27;;;;;;;-4.87;86.13;95873.44;5029571;28;20796;-76
2023/02/27 05:25:45;;;;;;;7.20;4.80;;;;;;;-4.83;86.05;95876.75;5027127;28;20577;-76
2023/02/27 05:28:23;;;;;;;4.23;3.60;;;;;;;-4.82;86.41;95880.09;5019375;28;20181;-78
2023/02/27 05:30:56;;;;;;;7.47;4.20;;;;;;;-4.80;85.79;95875.81;5004076;28;20221;-78
2023/02/27 05:33:43;;;;;;;3.63;3.13;;;;;;;-4.90;85.78;95882.88;5023625;28;20183;-78
2023/02/27 05:36:15;;;;;;;4.47;3.30;;;;;;;-5.00;86.80;95879.78;5035068;28;20198;-77
2023/02/27 05:38:44;;;;;;;5.13;2.77;;;;;;;-4.87;85.99;95882.75;5014503;28;20198;-77
2023/02/27 05:41:19;;;;;;;6.33;3.27;;;;;;;-5.01;87.46;95880.66;5025354;28;20210;-76
2023/02/27 05:43:57;;;;;;;4.40;2.90;;;;;;;-5.01;87.73;95874.75;5002836;28;20217;-76
2023/02/27 05:46:30;;;;;;;4.83;3.20;;;;;;;-4.91;86.87;95884.56;5027922;28;20194;-77
2023/02/27 05:49:02;;;;;;;4.63;3.30;;;;;;;-5.06;86.88;95881.66;5010762;28;20194;-77
2023/02/27 05:51:30;;;;;;;4.13;3.23;;;;;;;-5.00;87.21;95887.38;5028266;28;20308;-77
2023/02/27 05:54:02;;;;;;;5.33;3.50;;;;;;;-5.06;87.42;95890.09;5032557;28;20190;-77
2023/02/27 05:56:29;;;;;;;5.00;3.53;;;;;;;-5.16;87.93;95878.56;5016007;28;20180;-77
2023/02/27 05:59:00;;;;;;;4.07;3.50;;;;;;;-5.06;87.97;95881.66;5023404;28;20293;-77
2023/02/27 06:01:25;;;;;;;7.90;4.23;;;;;;;-5.16;87.80;95886.16;5033018;28;20272;-77
2023/02/27 06:03:50;;;;;;;5.27;4.30;;;;;;;-5.23;88.07;95895.63;5033226;28;20253;-77
2023/02/27 06:06:17;;;;;;;5.20;3.70;;;;;;;-5.20;88.02;95885.44;5026963;28;20189;-77
2023/02/27 06:08:44;;;;;;;4.70;3.50;;;;;;;-5.26;88.77;95897.44;5005654;28;20193;-77
2023/02/27 06:11:09;;;;;;;5.03;3.97;;;;;;;-5.18;88.38;95893.81;5006458;28;20229;-78
2023/02/27 06:13:34;;;;;;;3.90;3.50;;;;;;;-5.07;87.70;95901.09;5028072;28;20190;-79
2023/02/27 06:15:59;;;;;;;7.30;4.37;;;;;;;-5.26;89.57;95895.75;5036984;28;20210;-78
2023/02/27 06:18:25;;;;;;;6.00;4.00;;;;;;;-5.23;88.59;95890.56;5020945;28;20202;-78
2023/02/27 06:20:50;;;;;;;5.57;4.13;;;;;;;-5.05;87.80;95890.91;5038610;28;20648;-79
2023/02/27 06:23:16;;;;;;;6.13;4.07;;;;;;;-5.29;89.20;95897.53;5035550;28;20199;-77
2023/02/27 06:25:41;;;;;;;6.43;4.10;;;;;;;-5.25;88.42;95894.84;5012207;28;20232;-78
2023/02/27 06:28:08;;;;;;;7.93;4.10;;;;;;;-5.12;88.73;95905.47;5022105;28;20192;-78
2023/02/27 06:30:33;;;;;;;6.63;3.97;;;;;;;-5.19;88.90;95906.53;5025652;28;20215;-78
2023/02/27 06:32:59;;;;;;;4.13;3.57;;;;;;;-5.19;88.85;95914.13;5032322;28;20248;-78
2023/02/27 06:35:25;;;;;;;5.67;3.53;;;;;;;-5.12;88.05;95908.00;5037816;28;20305;-77
2023/02/27 06:37:50;;;;;;;5.47;3.60;;;;;;;-5.13;87.79;95918.97;5022907;28;20235;-79
2023/02/27 06:40:17;;;;;;;4.10;3.60;;;;;;;-5.22;88.43;95916.72;5035023;28;20178;-78
2023/02/27 06:42:43;;;;;;;7.93;3.60;;;;;;;-5.09;88.49;95919.75;5016254;28;20204;-78
2023/02/27 06:45:12;;;;;;;6.17;3.60;;;;;;;-5.02;88.23;95922.06;5025682;28;20229;-78
2023/02/27 06:47:38;;;;;;;5.73;3.60;;;;;;;-5.17;88.58;95915.72;5012762;28;20181;-78
2023/02/27 06:50:04;;;;;;;6.90;3.60;;;;;;;-5.14;88.33;95915.63;5038417;28;20331;-77
2023/02/27 06:52:30;;;;;;;7.27;4.13;;;;;;;-5.05;88.74;95919.59;5020050;28;20185;-77
2023/02/27 06:54:56;;;;;;;7.87;3.60;;;;;;;-5.00;87.90;95922.00;5018666;28;20255;-76
2023/02/27 06:57:21;;;;;;;4.53;3.30;;;;;;;-4.86;87.88;95922.41;5034742;28;20181;-78
2023/02/27 06:59:46;;;;;;;7.20;3.70;;;;;;;-4.77;86.94;95923.84;5022130;28;20244;-77
2023/02/27 07:02:13;;;;;;;4.73;3.53;;;;;;;-4.81;86.85;95933.25;5037301;28;20179;-78
2023/02/27 07:04:39;;;;;;;8.17;3.63;;;;;;;-4.79;87.06;95943.34;5027339;28;20202;-78
2023/02/27 07:07:04;;;;;;;6.60;3.77;;;;;;;-4.77;86.56;95936.50;5039811;28;20193;-79
2023/02/27 07:09:30;;;;;;;7.03;5.00;;;;;;;-4.72;86.60;95929.59;5035419;28;20215;-78
2023/02/27 07:11:55;;;;;;;6.70;4.30;;;;;;;-4.66;86.43;95930.25;5029699;28;20183;-77
2023/02/27 07:14:21;;;;;;;19.60;7.90;;;;;;;-4.64;86.16;95930.22;5019209;28;20226;-79
2023/02/27 07:16:49;;;;;;;7.73;4.07;;;;;;;-4.46;85.86;95933.88;5033950;28;20205;-77
2023/02/27 07:19:15;;;;;;;8.53;5.53;;;;;;;-4.46;85.41;95936.41;5026487;28;20266;-78
2023/02/27 07:21:41;;;;;;;15.67;7.90;;;;;;;-4.46;85.07;95939.78;5020410;28;20182;-78
2023/02/27 07:24:06;;;;;;;13.80;5.47;;;;;;;-4.43;84.90;95946.44;5037234;28;20214;-77
2023/02/27 07:26:31;;;;;;;8.60;3.93;;;;;;;-4.41;85.87;95949.78;5026067;28;20302;-80
2023/02/27 07:28:57;;;;;;;5.80;4.13;;;;;;;-4.47;85.49;95947.44;5012509;28;20187;-77
2023/02/27 07:31:22;;;;;;;11.37;7.23;;;;;;;-4.41;85.71;95948.09;5034508;28;20214;-77
2023/02/27 07:33:47;;;;;;;6.57;3.77;;;;;;;-4.19;84.69;95953.28;5031701;28;20688;-79
2023/02/27 07:36:13;;;;;;;6.70;3.63;;;;;;;-4.02;83.42;95947.69;5015191;28;20280;-78
2023/02/27 07:38:38;;;;;;;5.27;4.77;;;;;;;-3.94;83.63;95952.50;5045980;28;20190;-78
2023/02/27 07:41:03;;;;;;;5.77;3.57;;;;;;;-3.93;83.21;95944.84;5041512;28;20183;-79
2023/02/27 07:43:29;;;;;;;6.90;5.03;;;;;;;-4.13;83.95;95954.81;5033505;28;20199;-78
2023/02/27 07:45:54;;;;;;;6.63;4.57;;;;;;;-4.11;83.76;95947.97;5031659;28;20306;-79
2023/02/27 07:48:19;;;;;;;6.83;3.87;;;;;;;-4.07;82.76;95955.41;5034523;28;20193;-77
2023/02/27 07:50:45;;;;;;;5.67;4.00;;;;;;;-3.89;82.62;95950.63;5014915;28;20692;-78
2023/02/27 07:53:12;;;;;;;8.07;4.43;;;;;;;-3.93;82.40;95959.22;5011813;28;20214;-78
2023/02/27 07:55:37;;;;;;;8.20;5.20;;;;;;;-3.80;82.36;95955.38;5028819;28;20619;-78
2023/02/27 07:58:02;;;;;;;9.10;5.97;;;;;;;-3.56;81.41;95961.34;5036235;28;20201;-77
2023/02/27 08:00:28;;;;;;;9.27;6.70;;;;;;;-3.73;81.60;95961.94;5015586;28;20714;-78
2023/02/27 08:02:53;;;;;;;8.97;4.70;;;;;;;-3.47;80.92;95958.50;5024407;28;20190;-78
2023/02/27 08:05:19;;;;;;;7.33;4.43;;;;;;;-3.64;80.18;95958.25;5032338;28;20302;-77
2023/02/27 08:07:44;;;;;;;10.50;5.80;;;;;;;-3.42;79.98;95959.19;5033811;28;20190;-78
2023/02/27 08:10:10;;;;;;;9.27;5.07;;;;;;;-3.37;79.17;95962.38;5027168;28;20207;-78
2023/02/27 08:12:35;;;;;;;6.07;4.37;;;;;;;-3.28;79.00;95958.69;5019012;28;20278;-75
2023/02/27 08:15:00;;;;;;;6.27;3.90;;;;;;;-3.34;78.58;95964.81;5012580;28;21001;-78
2023/02/27 08:17:26;;;;;;;7.57;4.13;;;;;;;-3.20;78.08;95961.78;5039357;28;20541;-77
2023/02/27 08:19:51;;;;;;;4.90;3.73;;;;;;;-3.22;77.91;95961.84;5019648;28;20186;-76
2023/02/27 08:22:16;;;;;;;3.93;3.10;;;;;;;-3.21;76.89;95960.13;5031403;28;20561;-77
2023/02/27 08:24:42;;;;;;;4.83;3.53;;;;;;;-2.98;77.01;95959.31;5013873;28;20210;-78
2023/02/27 08:27:07;;;;;;;5.60;3.73;;;;;;;-2.86;76.12;95956.31;5029790;28;20226;-77
2023/02/27 08:29:33;;;;;;;5.07;3.73;;;;;;;-3.10;76.63;95964.81;5031553;28;20214;-78
2023/02/27 08:31:59;;;;;;;6.43;3.33;;;;;;;-3.04;76.39;95960.34;5037033;28;20311;-78
2023/02/27 08:34:24;;;;;;;7.70;4.43;;;;;;;-2.68;75.10;95960.72;5019360;28;20202;-79
2023/02/27 08:36:50;;;;;;;3.73;3.27;;;;;;;-2.53;74.64;95963.56;5026167;28;20254;-78
2023/02/27 08:39:16;;;;;;;8.13;3.70;;;;;;;-2.37;73.99;95972.28;5030168;28;20187;-79
2023/02/27 08:41:42;;;;;;;6.17;3.93;;;;;;;-2.44;72.74;95963.22;5029733;28;20180;-78
2023/02/27 08:44:07;;;;;;;4.80;3.23;;;;;;;-2.46;71.96;95976.00;5040321;28;20241;-80
2023/02/27 08:46:33;;;;;;;7.57;3.50;;;;;;;-2.43;71.62;95962.31;5034038;28;20449;-79
2023/02/27 08:48:58;;;;;;;5.50;3.60;;;;;;;-2.40;71.44;95974.91;5035211;28;20186;-79
2023/02/27 08:51:23;;;;;;;5.00;3.13;;;;;;;-2.38;70.00;95968.91;5022254;28;20222;-79
2023/02/27 08:53:49;;;;;;;4.07;2.90;;;;;;;-2.28;70.03;95987.16;5008938;28;20190;-77
2023/02/27 08:56:14;;;;;;;4.70;3.10;;;;;;;-2.14;69.03;95977.28;5012399;28;20229;-77
2023/02/27 08:58:39;;;;;;;4.60;3.37;;;;;;;-2.32;69.05;95978.00;5032588;28;20199;-80
2023/02/27 09:01:04;;;;;;;6.53;3.07;;;;;;;-2.15;67.75;95983.25;5029274;28;20191;-77
2023/02/27 09:03:30;;;;;;;5.43;3.17;;;;;;;-2.06;67.91;95985.44;5027301;28;20199;-77
2023/02/27 09:05:56;;;;;;;5.67;3.13;;;;;;;-1.78;68.17;95986.88;5012846;28;20203;-77
2023/02/27 09:08:21;;;;;;;4.60;3.40;;;;;;;-1.64;67.78;95982.03;5020501;28;20266;-78
2023/02/27 09:10:47;;;;;;;3.87;3.00;;;;;;;-1.32;67.09;95987.53;5018696;28;20751;-77
2023/02/27 09:13:12;;;;;;;4.23;3.00;;;;;;;-1.80;65.67;95988.66;5031930;28;20191;-79
2023/02/27 09:15:38;;;;;;;4.30;3.27;;;;;;;-1.76;66.42;95992.75;5032311;28;20207;-78
2023/02/27 09:18:05;;;;;;;4.63;3.20;;;;;;;-1.63;65.88;95978.59;5015538;28;20631;-77
2023/02/27 09:20:32;;;;;;;4.83;3.20;;;;;;;-1.45;64.79;95982.09;5028992;28;20524;-79
2023/02/27 09:22:58;;;;;;;4.43;3.10;;;;;;;-1.52;64.63;95980.69;5020484;28;20189;-78
2023/02/27 09:25:24;;;;;;;3.30;2.80;;;;;;;-1.30;63.56;95988.28;5010738;28;20203;-79
2023/02/27 09:27:49;;;;;;;5.83;3.33;;;;;;;-1.25;63.48;95991.44;5022719;28;20220;-79
2023/02/27 09:30:15;;;;;;;6.47;3.30;;;;;;;-1.05;62.50;95986.34;5012900;28;20225;-79
2023/02/27 09:32:40;;;;;;;3.83;3.43;;;;;;;-1.01;62.75;95992.94;5029254;28;20235;-79
2023/02/27 09:35:06;;;;;;;5.00;3.30;;;;;;;-0.67;62.09;95991.47;5016340;28;20269;-79
2023/02/27 09:37:31;;;;;;;4.60;2.90;;;;;;;-0.47;61.71;95993.94;5019301;28;20329;-78
2023/02/27 09:39:57;;;;;;;2.90;2.50;;;;;;;-0.44;61.75;95998.91;5010568;28;20282;-79
2023/02/27 09:42:32;;;;;;;3.97;2.70;;;;;;;-0.28;60.62;95992.19;5041347;28;20243;-79
2023/02/27 09:45:01;;;;;;;4.07;2.67;;;;;;;-0.37;59.43;95999.44;5026797;28;20203;-78
2023/02/27 09:47:35;;;;;;;2.47;2.17;;;;;;;-0.48;59.51;95996.56;5039887;28;20195;-79
2023/02/27 09:50:05;;;;;;;3.67;2.57;;;;;;;-0.66;58.38;95993.13;5047339;28;20271;-77
2023/02/27 09:52:32;;;;;;;4.27;2.80;;;;;;;-0.57;58.88;96002.91;5038856;28;20219;-78
2023/02/27 09:54:58;;;;;;;3.00;2.70;;;;;;;-0.65;58.54;96002.41;5012714;28;20260;-80
2023/02/27 09:57:31;;;;;;;2.80;2.43;;;;;;;-0.81;56.87;95996.34;5025949;28;20250;-79
2023/02/27 10:00:05;;;;;;;2.83;2.50;;;;;;;-0.87;57.00;96005.94;5016547;28;20261;-79
2023/02/27 10:02:55;;;;;;;3.50;2.80;;;;;;;-0.76;57.14;95997.81;5013850;28;20184;-80
2023/02/27 10:05:48;;;;;;;4.27;3.03;;;;;;;-0.18;57.97;96024.94;5032770;28;20210;-81
2023/02/27 10:08:27;;;;;;;4.17;2.77;;;;;;;-0.07;55.75;96007.41;5030312;28;20185;-80
2023/02/27 10:11:03;;;;;;;3.27;2.80;;;;;;;-0.25;55.26;96006.53;5034878;28;20598;-81
2023/02/27 10:13:42;;;;;;;4.70;3.13;;;;;;;-0.27;54.96;96005.78;5043528;28;20611;-80
2023/02/27 10:16:11;;;;;;;3.00;2.10;;;;;;;0.07;54.65;96010.13;5028166;28;20180;-80
2023/02/27 10:18:47;;;;;;;4.40;3.07;;;;;;;0.07;53.96;96034.84;5003203;28;20218;-79
2023/02/27 10:21:17;;;;;;;2.90;2.60;;;;;;;-0.30;53.05;96021.22;5027255;28;20203;-80
2023/02/27 10:23:48;;;;;;;2.90;2.60;;;;;;;-0.33;53.19;96041.81;5018408;28;20208;-80
2023/02/27 10:26:19;;;;;;;5.00;3.03;;;;;;;0.04;53.02;96030.72;5039067;28;20637;-80
2023/02/27 10:28:44;;;;;;;5.13;3.33;;;;;;;0.11;51.68;96021.88;5032210;28;20220;-80
2023/02/27 10:31:16;;;;;;;3.83;2.60;;;;;;;0.59;51.56;96029.78;5012101;28;20270;-79
2023/02/27 10:33:41;;;;;;;9.83;4.07;;;;;;;0.36;51.15;96036.03;5031331;28;20197;-80
2023/02/27 10:36:10;;;;;;;3.70;2.40;;;;;;;0.32;50.00;96029.41;5037361;28;20260;-80
2023/02/27 10:38:58;;;;;;;4.07;2.20;;;;;;;0.44;50.87;96039.00;5028817;28;20208;-79
2023/02/27 10:41:24;;;;;;;5.33;3.03;;;;;;;0.26;49.71;96033.06;5018786;28;20245;-79
2023/02/27 10:43:54;;;;;;;6.60;2.97;;;;;;;0.33;50.68;96031.03;5010814;28;20222;-79
2023/02/27 10:46:24;;;;;;;6.23;3.80;;;;;;;0.22;50.53;96047.72;5025419;28;20189;-80
2023/02/27 10:48:50;;;;;;;4.33;3.37;;;;;;;0.22;50.98;96018.78;5031048;28;20196;-80
2023/02/27 10:51:27;;;;;;;4.30;2.50;;;;;;;0.38;50.06;96035.03;5018345;28;20210;-78
2023/02/27 10:54:18;;;;;;;5.93;2.40;;;;;;;0.34;50.93;96022.47;5026405;28;20181;-79
2023/02/27 10:56:47;;;;;;;5.07;1.83;;;;;;;0.35;49.89;96037.72;5016369;28;20189;-81
2023/02/27 10:59:23;;;;;;;4.50;2.03;;;;;;;0.66;49.53;96028.59;5041544;28;20243;-80
2023/02/27 11:02:14;;;;;;;4.37;1.77;;;;;;;0.55;48.49;96026.56;5029469;28;20190;-80
2023/02/27 11:04:46;;;;;;;3.13;2.30;;;;;;;0.44;48.01;96036.47;4975314;28;20221;-80
2023/02/27 11:07:17;;;;;;;4.63;2.53;;;;;;;0.56;48.64;96041.00;4971724;28;20211;-80
2023/02/27 11:09:42;;;;;;;3.27;2.00;;;;;;;0.42;48.40;96043.38;4965354;28;20295;-78
2023/02/27 11:12:27;;;;;;;2.97;2.37;;;;;;;0.66;49.21;96029.41;4961215;28;20214;-78
2023/02/27 11:14:55;;;;;;;2.93;2.10;;;;;;;0.79;48.01;96038.09;4970085;28;20219;-81
2023/02/27 11:17:27;;;;;;;3.23;2.23;;;;;;;1.30;48.10;96026.13;4951557;28;20852;-81
2023/02/27 11:19:53;;;;;;;3.93;2.30;;;;;;;1.27;47.76;96051.91;4959328;28;20227;-81
2023/02/27 11:22:22;;;;;;;4.27;2.30;;;;;;;1.69;48.23;96030.09;4974998;28;20211;-79
2023/02/27 11:24:48;;;;;;;3.77;2.27;;;;;;;1.66;46.79;96027.66;4964718;28;20246;-77
2023/02/27 11:27:27;;;;;;;5.67;2.80;;;;;;;1.94;47.94;96034.69;4983255;28;20188;-79
2023/02/27 11:30:21;;;;;;;4.57;2.50;;;;;;;2.03;49.60;96026.50;4986049;28;20304;-79
2023/02/27 11:32:56;;;;;;;3.60;2.93;;;;;;;1.64;50.44;96019.25;4983208;28;20275;-79
2023/02/27 11:35:32;;;;;;;6.67;3.10;;;;;;;2.07;47.06;96022.06;4974957;28;20215;-79
2023/02/27 11:38:15;;;;;;;6.13;3.23;;;;;;;1.76;46.51;96018.59;4980175;28;20188;-79
2023/02/27 11:40:49;;;;;;;3.07;2.03;;;;;;;2.22;45.16;96011.78;4972717;28;20714;-79
2023/02/27 11:43:18;;;;;;;4.10;2.40;;;;;;;2.42;46.49;96022.66;5011327;28;20198;-79
2023/02/27 11:45:49;;;;;;;6.70;2.70;;;;;;;2.05;49.37;96029.81;5022400;28;20203;-79
2023/02/27 11:48:24;;;;;;;6.87;3.10;;;;;;;1.48;50.58;96023.53;5030866;28;21189;-79